Time;durP1;ratioP1;P1;durP2;ratioP2;P2;SDS_P1;SDS_P2;PMS_P1;PMS_P2;Temp;Humidity;BMP_temperature;BMP_pressure;BME280_temperature;BME280_humidity;BME280_pressure;Samples;Min_cycle;Max_cycle;Signal;HPM_P1;HPM_P2
2023/12/12 07:01:24;;;;;;;0.40;0.40;;;10.20;99.90;12.50;100113.00;;;;6188077;22;1468375;-69
2023/12/12 07:03:50;;;;;;;0.40;0.40;;;10.10;99.90;12.30;100113.00;;;;6251412;22;20155;-68
2023/12/12 07:06:19;;;;;;;0.40;0.40;;;9.90;99.90;12.70;100107.00;;;;6277190;22;20699;-70
2023/12/12 07:08:48;;;;;;;1.10;1.00;;;10.10;99.90;12.50;100074.00;;;;6278454;22;20140;-68
2023/12/12 07:11:16;;;;;;;0.50;0.40;;;10.00;99.90;12.60;100115.00;;;;6278419;22;20142;-68
2023/12/12 07:13:42;;;;;;;11.23;2.33;;;10.00;99.90;12.60;100098.00;;;;6251176;22;20176;-68
2023/12/12 07:16:10;;;;;;;5.93;1.33;;;10.10;99.90;12.70;100107.00;;;;6276875;22;20204;-68
2023/12/12 07:18:41;;;;;;;0.77;0.77;;;10.00;99.90;12.80;100102.00;;;;6276825;22;20586;-68
2023/12/12 07:21:15;;;;;;;0.63;0.63;;;10.20;99.90;12.90;100089.00;;;;6277064;22;20157;-68
2023/12/12 07:23:51;;;;;;;1.10;1.00;;;10.20;99.90;12.60;100087.00;;;;6278445;22;20146;-68
2023/12/12 07:26:24;;;;;;;3.87;3.60;;;10.20;99.90;12.60;100081.00;;;;6277008;22;20138;-68
2023/12/12 07:28:50;;;;;;;1.57;1.47;;;10.20;99.90;12.40;100082.00;;;;6278357;22;20141;-68
2023/12/12 07:31:16;;;;;;;2.33;2.23;;;10.10;99.90;12.70;100081.00;;;;6250837;22;20258;-68
2023/12/12 07:33:50;;;;;;;4.30;3.37;;;10.10;99.90;12.20;100044.00;;;;6277919;22;20184;-68
2023/12/12 07:36:16;;;;;;;0.60;0.60;;;10.10;99.90;12.60;100055.00;;;;6276821;22;20518;-68
2023/12/12 07:38:42;;;;;;;0.33;0.33;;;10.00;99.90;12.50;100073.00;;;;6249345;22;20167;-68
2023/12/12 07:41:11;;;;;;;0.50;0.50;;;10.10;99.90;12.20;100085.00;;;;6274993;22;20157;-68
2023/12/12 07:43:38;;;;;;;0.50;0.50;;;10.00;99.90;12.20;100079.00;;;;6276554;22;20251;-69
2023/12/12 07:46:05;;;;;;;4.30;1.33;;;10.00;99.90;12.10;100076.00;;;;6276018;22;20652;-68
2023/12/12 07:48:34;;;;;;;0.60;0.60;;;9.90;99.90;12.00;100090.00;;;;6277636;22;20171;-68
2023/12/12 07:51:00;;;;;;;0.67;0.43;;;9.90;99.90;12.00;100092.00;;;;6278223;22;20145;-68
2023/12/12 07:53:26;;;;;;;0.30;0.30;;;9.90;99.90;12.20;100090.00;;;;6273841;22;20499;-68
2023/12/12 07:55:52;;;;;;;0.80;0.80;;;10.00;99.90;12.40;100093.00;;;;6250839;22;20234;-68
2023/12/12 07:58:18;;;;;;;0.70;0.70;;;10.00;99.90;12.00;100087.00;;;;6275744;22;20218;-68
2023/12/12 08:00:52;;;;;;;1.20;1.13;;;10.00;99.90;12.00;100093.00;;;;6277414;22;20165;-68
2023/12/12 08:03:21;;;;;;;0.50;0.50;;;9.90;99.90;12.20;100055.00;;;;6277949;22;20251;-68
2023/12/12 08:06:05;;;;;;;0.93;0.93;;;9.90;99.90;12.10;100084.00;;;;6278138;22;20198;-68
2023/12/12 08:08:32;;;;;;;0.93;0.53;;;10.00;99.90;11.90;100051.00;;;;6269224;22;20160;-68
2023/12/12 08:11:12;;;;;;;1.20;1.10;;;10.00;99.90;11.80;100077.00;;;;6274362;22;20171;-68
2023/12/12 08:13:40;;;;;;;1.07;0.97;;;9.90;99.90;11.90;100076.00;;;;6275381;22;20200;-68
2023/12/12 08:16:35;;;;;;;0.70;0.70;;;10.00;99.90;12.20;100092.00;;;;6275379;22;20157;-68
2023/12/12 08:19:01;;;;;;;0.93;0.93;;;10.10;99.90;12.30;100083.00;;;;6275813;22;20520;-68
2023/12/12 08:21:27;;;;;;;2.63;2.20;;;10.20;99.90;12.30;100046.00;;;;6275293;22;20157;-68
2023/12/12 08:23:54;;;;;;;0.47;0.47;;;10.20;99.90;12.50;100084.00;;;;6275921;22;20618;-68
2023/12/12 08:26:24;;;;;;;0.70;0.70;;;10.30;99.90;12.10;100079.00;;;;6276842;22;20219;-69
2023/12/12 08:28:58;;;;;;;1.20;1.20;;;10.20;99.90;12.50;100067.00;;;;6276824;22;20146;-69
2023/12/12 08:31:28;;;;;;;1.60;1.37;;;10.40;99.90;12.30;100059.00;;;;6276511;22;20225;-69
2023/12/12 08:33:56;;;;;;;1.40;1.30;;;10.30;99.90;12.50;100053.00;;;;6275965;22;20172;-69
2023/12/12 08:36:31;;;;;;;2.43;1.40;;;10.40;99.90;12.40;100059.00;;;;6277329;22;20577;-69
2023/12/12 08:39:01;;;;;;;1.07;0.77;;;10.40;99.90;12.40;100048.00;;;;6275487;22;20146;-69
2023/12/12 08:41:28;;;;;;;0.60;0.60;;;10.40;99.90;13.00;100039.00;;;;6276238;22;20149;-69
2023/12/12 08:44:00;;;;;;;8.97;5.67;;;10.60;99.90;12.60;100030.00;;;;6276549;22;20145;-69
2023/12/12 08:46:27;;;;;;;1.13;1.07;;;10.60;99.90;12.90;100029.00;;;;6276227;22;20150;-69
2023/12/12 08:48:57;;;;;;;2.23;2.10;;;10.60;99.90;12.90;100027.00;;;;6276049;22;20138;-69
2023/12/12 08:51:30;;;;;;;2.87;1.77;;;10.70;99.90;12.40;100021.00;;;;6275884;22;20141;-69
2023/12/12 08:54:07;;;;;;;0.67;0.67;;;10.60;99.90;12.70;100028.00;;;;6277398;22;20148;-69
2023/12/12 08:56:38;;;;;;;2.10;1.90;;;10.60;99.90;12.90;100025.00;;;;6277533;22;20164;-69
2023/12/12 08:59:04;;;;;;;0.83;0.83;;;10.70;99.90;13.00;100034.00;;;;6276114;22;20152;-69
2023/12/12 09:01:38;;;;;;;1.93;1.83;;;10.80;99.90;12.80;100032.00;;;;6277677;22;20163;-69
2023/12/12 09:04:13;;;;;;;0.60;0.60;;;10.80;99.90;13.10;100029.00;;;;6275512;22;20672;-69
2023/12/12 09:06:48;;;;;;;0.50;0.40;;;10.80;99.90;13.10;100023.00;;;;6275275;22;20228;-69
2023/12/12 09:09:21;;;;;;;1.33;0.83;;;10.90;99.90;13.30;100017.00;;;;6275874;22;20532;-69
2023/12/12 09:11:54;;;;;;;2.23;1.37;;;11.00;99.90;12.80;100020.00;;;;6275904;22;20188;-69
2023/12/12 09:14:30;;;;;;;0.53;0.50;;;10.90;99.90;13.10;100028.00;;;;6276131;22;20193;-68
2023/12/12 09:17:05;;;;;;;19.83;3.03;;;10.90;99.90;13.10;99989.00;;;;6276612;22;20146;-68
2023/12/12 09:19:36;;;;;;;2.93;1.43;;;11.00;99.90;13.20;100006.00;;;;6276986;22;20582;-69
2023/12/12 09:22:19;;;;;;;0.50;0.50;;;11.00;99.90;13.40;99962.00;;;;6275235;22;20143;-69
2023/12/12 09:24:51;;;;;;;0.73;0.73;;;11.10;99.90;13.70;99992.00;;;;6275501;22;20152;-69
2023/12/12 09:27:34;;;;;;;1.67;1.57;;;11.30;99.90;13.40;99991.00;;;;6276807;22;20161;-69
2023/12/12 09:30:08;;;;;;;1.03;1.03;;;11.10;99.90;13.60;99951.00;;;;6275760;22;20236;-69
2023/12/12 09:33:03;;;;;;;0.97;0.80;;;11.20;99.90;13.40;99980.00;;;;6276876;22;20602;-69
2023/12/12 09:35:38;;;;;;;1.10;1.10;;;11.20;99.90;13.10;99967.00;;;;6274275;22;20147;-69
2023/12/12 09:38:47;;;;;;;1.00;0.67;;;11.10;99.90;13.40;99971.00;;;;6247508;22;20160;-68
2023/12/12 09:42:03;;;;;;;0.47;0.47;;;11.10;99.90;13.70;99965.00;;;;6274514;22;20160;-69
2023/12/12 09:44:55;;;;;;;0.47;0.47;;;11.30;99.90;14.00;99957.00;;;;6276794;22;20188;-68
2023/12/12 09:47:35;;;;;;;1.27;1.27;;;11.40;99.90;13.90;99952.00;;;;6249885;22;20208;-69
2023/12/12 09:50:13;;;;;;;0.30;0.30;;;11.40;99.90;13.30;99960.00;;;;6275283;22;20147;-69
2023/12/12 09:53:29;;;;;;;1.27;1.17;;;11.20;99.90;13.40;99958.00;;;;6274629;22;20391;-68
2023/12/12 09:56:09;;;;;;;1.63;1.53;;;11.10;99.90;13.90;99956.00;;;;6274675;22;20141;-68
2023/12/12 09:59:15;;;;;;;0.30;0.30;;;11.30;99.90;13.60;99939.00;;;;6272721;22;20165;-69
2023/12/12 10:02:40;;;;;;;0.70;0.70;;;11.40;99.90;13.70;99944.00;;;;6274111;22;20175;-69
2023/12/12 10:05:12;;;;;;;1.23;1.13;;;11.40;99.90;13.90;99894.00;;;;6274563;22;20582;-69
2023/12/12 10:07:50;;;;;;;3.57;3.23;;;11.40;99.90;13.60;99915.00;;;;6274796;22;20487;-69
2023/12/12 10:10:30;;;;;;;0.50;0.50;;;11.40;99.90;14.20;99920.00;;;;6276806;22;20158;-69
2023/12/12 10:13:07;;;;;;;0.87;0.87;;;11.50;99.90;13.80;99905.00;;;;6276760;22;20547;-68
2023/12/12 10:15:41;;;;;;;1.37;0.77;;;11.50;99.90;13.50;99898.00;;;;6275581;22;20143;-68
2023/12/12 10:18:14;;;;;;;3.50;1.07;;;11.40;99.90;13.90;99902.00;;;;6275145;22;20149;-68
2023/12/12 10:20:49;;;;;;;3.57;2.73;;;11.50;99.90;14.00;99882.00;;;;6274956;22;20626;-68
2023/12/12 10:33:34;;;;;;;0.93;0.93;;;10.80;99.90;13.00;99941.00;;;;5158523;27;21637;-70
2023/12/12 10:36:09;;;;;;;2.70;2.55;;;11.00;99.90;13.00;99911.00;;;;5113979;27;20436;-68
2023/12/12 10:38:59;;;;;;;1.47;1.33;;;11.10;99.90;13.40;99920.00;;;;5118748;27;20531;-68
2023/12/12 10:42:15;;;;;;;0.20;0.20;;;11.20;99.90;14.30;99895.00;;;;5127372;27;20270;-68
2023/12/12 10:45:16;;;;;;;0.73;0.73;;;11.50;99.90;13.50;99878.00;;;;5120806;27;20195;-68
2023/12/12 10:47:57;;;;;;;0.67;0.67;;;11.50;99.90;13.50;99872.00;;;;5141354;27;20179;-68
2023/12/12 10:50:34;;;;;;;0.20;0.20;;;11.50;99.90;14.50;99873.00;;;;5118764;28;20260;-68
2023/12/12 10:53:10;;;;;;;0.70;0.57;;;11.80;99.90;13.80;99871.00;;;;5114540;28;20208;-68
2023/12/12 10:55:49;;;;;;;0.40;0.40;;;11.70;99.90;14.30;99845.00;;;;5115564;27;20659;-68
2023/12/12 10:58:24;;;;;;;0.40;0.40;;;11.90;99.90;13.90;99851.00;;;;5131073;28;20590;-68
2023/12/12 11:00:58;;;;;;;1.20;1.13;;;11.80;99.90;13.70;99863.00;;;;5118337;27;20193;-68
2023/12/12 11:03:36;;;;;;;5.20;3.03;;;11.80;99.90;14.30;99855.00;;;;5118006;27;20288;-68
2023/12/12 11:06:09;;;;;;;0.87;0.87;;;11.90;99.90;13.90;99851.00;;;;5118491;27;20190;-68
2023/12/12 11:09:13;;;;;;;3.93;1.47;;;11.90;99.90;14.10;99844.00;;;;5106771;27;20197;-68
2023/12/12 11:11:53;;;;;;;1.73;1.70;;;11.90;99.90;14.20;99850.00;;;;5125683;27;20282;-68
2023/12/12 11:14:27;;;;;;;0.73;0.73;;;12.00;99.90;14.00;99820.00;;;;5126717;27;20267;-67
2023/12/12 11:17:04;;;;;;;0.70;0.70;;;11.90;99.90;14.10;99824.00;;;;5130842;27;20185;-67
2023/12/12 11:19:33;;;;;;;0.87;0.87;;;11.90;99.90;14.60;99826.00;;;;5118684;28;20197;-67
2023/12/12 11:22:10;;;;;;;1.60;1.50;;;12.10;99.90;13.70;99831.00;;;;5125978;27;20187;-69
2023/12/12 11:25:02;;;;;;;0.95;0.95;;;11.90;99.90;13.80;99825.00;;;;5131419;27;20408;-66
2023/12/12 11:27:31;;;;;;;1.73;1.63;;;11.90;99.90;14.50;99828.00;;;;5093878;28;20237;-67
2023/12/12 11:29:59;;;;;;;0.97;0.97;;;12.00;99.90;14.50;99808.00;;;;5125548;28;20179;-67
2023/12/12 11:32:34;;;;;;;1.07;1.03;;;12.10;99.90;14.30;99809.00;;;;5121904;27;20556;-67
2023/12/12 11:35:34;;;;;;;0.70;0.70;;;12.00;99.90;14.50;99803.00;;;;5122153;27;20179;-67
2023/12/12 11:38:46;;;;;;;0.57;0.50;;;12.00;99.90;13.80;99812.00;;;;5132513;27;20229;-69
2023/12/12 11:41:53;;;;;;;0.63;0.63;;;12.00;99.90;14.30;99809.00;;;;5135245;27;20643;-67
2023/12/12 11:44:26;;;;;;;1.83;1.73;;;12.00;99.90;13.80;99804.00;;;;5130174;27;20188;-67
2023/12/12 11:47:14;;;;;;;0.50;0.50;;;12.00;99.90;14.10;99811.00;;;;5105494;28;20306;-69
2023/12/12 11:50:15;;;;;;;3.30;0.80;;;11.90;99.90;14.20;99801.00;;;;5109208;27;20189;-69
2023/12/12 11:52:56;;;;;;;5.33;5.13;;;12.00;99.90;14.50;99797.00;;;;5122461;27;20258;-69
2023/12/12 11:55:45;;;;;;;1.43;1.30;;;12.10;99.90;14.60;99778.00;;;;5129693;27;20302;-69
2023/12/12 11:58:37;;;;;;;0.67;0.67;;;12.30;99.90;14.40;99750.00;;;;5097826;28;20278;-67
2023/12/12 12:01:03;;;;;;;0.27;0.27;;;12.20;99.90;14.20;99781.00;;;;5028372;28;20197;-69
2023/12/12 12:03:55;;;;;;;0.57;0.57;;;12.20;99.90;13.80;99776.00;;;;5104003;28;20253;-69
2023/12/12 12:06:33;;;;;;;1.13;0.60;;;12.00;99.90;13.80;99775.00;;;;5083134;27;20191;-69
2023/12/12 12:09:03;;;;;;;0.30;0.30;;;12.00;99.90;14.40;99783.00;;;;5112182;27;20262;-69
2023/12/12 12:11:53;;;;;;;2.07;1.93;;;12.00;99.90;14.80;99774.00;;;;5088600;28;20196;-69
2023/12/12 12:14:45;;;;;;;0.40;0.40;;;12.20;99.90;14.70;99769.00;;;;5091913;27;20649;-69
2023/12/12 12:17:14;;;;;;;0.30;0.30;;;12.30;99.90;15.20;99753.00;;;;5109962;27;20175;-69
2023/12/12 12:19:42;;;;;;;1.03;1.03;;;12.40;99.90;14.80;99753.00;;;;5105110;28;20215;-68
2023/12/12 12:22:11;;;;;;;0.20;0.20;;;12.40;99.90;15.20;99746.00;;;;5125364;27;20191;-67
2023/12/12 12:24:45;;;;;;;0.20;0.20;;;12.40;99.90;14.80;99749.00;;;;5104504;27;20682;-67
2023/12/12 12:27:14;;;;;;;1.60;1.40;;;12.40;99.90;14.30;99734.00;;;;5114599;28;20555;-68
2023/12/12 12:29:57;;;;;;;1.50;1.50;;;12.40;99.90;14.50;99737.00;;;;5108349;27;20188;-68
2023/12/12 12:32:23;;;;;;;1.03;1.03;;;12.30;99.90;15.30;99727.00;;;;5117441;27;20573;-68
2023/12/12 12:34:52;;;;;;;1.23;1.13;;;12.50;99.90;14.90;99724.00;;;;5110466;27;20214;-68
2023/12/12 12:37:36;;;;;;;0.27;0.27;;;12.50;99.90;14.90;99688.00;;;;5124432;27;20194;-68
2023/12/12 12:40:10;;;;;;;1.07;1.07;;;12.60;99.90;14.60;99717.00;;;;5100972;27;20218;-68
2023/12/12 12:42:37;;;;;;;0.73;0.73;;;12.50;99.90;14.60;99710.00;;;;5117017;27;20191;-68
2023/12/12 12:45:06;;;;;;;0.40;0.40;;;12.50;99.90;14.30;99719.00;;;;5100078;28;20245;-68
2023/12/12 12:47:33;;;;;;;0.53;0.53;;;12.30;99.90;15.10;99713.00;;;;5099681;27;20193;-68
2023/12/12 12:50:00;;;;;;;0.60;0.60;;;12.50;99.90;14.80;99707.00;;;;5131442;27;20184;-68
2023/12/12 12:52:26;;;;;;;0.30;0.30;;;12.50;99.90;15.00;99706.00;;;;5104779;28;20566;-68
2023/12/12 12:54:54;;;;;;;0.60;0.60;;;12.60;99.90;15.70;99707.00;;;;5116847;27;20182;-68
2023/12/12 12:57:26;;;;;;;0.60;0.60;;;12.80;99.90;15.80;99701.00;;;;5100604;27;20195;-68
2023/12/12 12:59:58;;;;;;;1.37;1.27;;;13.00;99.90;14.90;99688.00;;;;5119112;27;20234;-68
2023/12/12 13:02:29;;;;;;;0.20;0.20;;;12.90;99.90;15.00;99673.00;;;;5120660;27;20203;-68
2023/12/12 13:04:55;;;;;;;0.83;0.83;;;12.80;99.90;15.40;99688.00;;;;5122609;27;20249;-68
2023/12/12 13:07:21;;;;;;;1.37;1.27;;;13.00;99.90;14.80;99672.00;;;;5109031;27;20181;-68
2023/12/12 13:09:47;;;;;;;0.30;0.30;;;12.80;99.90;15.10;99674.00;;;;5124881;27;20177;-68
2023/12/12 13:12:18;;;;;;;3.03;1.13;;;12.90;99.90;14.70;99669.00;;;;5099852;28;20603;-68
2023/12/12 13:14:50;;;;;;;0.30;0.30;;;12.80;99.90;14.70;99664.00;;;;5113879;27;20548;-68
2023/12/12 13:17:16;;;;;;;0.43;0.43;;;12.70;99.90;15.60;99667.00;;;;5129467;27;20265;-68
2023/12/12 13:19:50;;;;;;;2.67;0.93;;;12.90;99.90;15.50;99662.00;;;;5134756;27;20214;-67
2023/12/12 13:22:19;;;;;;;1.87;1.77;;;13.00;99.90;15.00;99656.00;;;;5124948;27;20662;-67
2023/12/12 13:24:54;;;;;;;1.00;0.97;;;13.00;99.90;14.70;99646.00;;;;5096996;27;20208;-67
2023/12/12 13:27:20;;;;;;;0.20;0.20;;;12.80;99.90;15.10;99653.00;;;;5116953;27;20721;-67
2023/12/12 13:29:46;;;;;;;0.50;0.50;;;12.90;99.90;15.50;99642.00;;;;5114883;27;21514;-68
2023/12/12 13:32:15;;;;;;;2.57;2.47;;;13.10;99.90;15.50;99642.00;;;;5095395;28;20224;-68
2023/12/12 13:34:41;;;;;;;0.27;0.27;;;13.20;99.90;15.20;99618.00;;;;5112376;28;20267;-67
2023/12/12 13:37:07;;;;;;;0.20;0.20;;;13.10;99.90;15.80;99632.00;;;;5106284;27;20268;-67
2023/12/12 13:39:35;;;;;;;0.60;0.60;;;13.20;99.90;15.40;99622.00;;;;5129115;27;20230;-67
2023/12/12 13:42:04;;;;;;;0.20;0.20;;;13.30;99.90;15.30;99628.00;;;;5100376;27;20537;-67
2023/12/12 13:44:36;;;;;;;1.43;1.17;;;13.20;99.90;15.60;99623.00;;;;5121260;27;20256;-67
2023/12/12 13:47:10;;;;;;;0.20;0.20;;;13.30;99.90;15.70;99618.00;;;;5097034;28;20180;-67
2023/12/12 13:49:44;;;;;;;0.33;0.33;;;13.30;99.90;15.20;99613.00;;;;5103077;27;20180;-67
2023/12/12 13:52:15;;;;;;;0.30;0.30;;;13.30;99.90;15.70;99613.00;;;;5123039;27;20201;-67
2023/12/12 13:54:49;;;;;;;0.40;0.40;;;13.30;99.90;15.70;99604.00;;;;5119868;27;20230;-67
2023/12/12 13:57:23;;;;;;;0.30;0.30;;;13.40;99.90;15.90;99611.00;;;;5099706;28;20664;-67
2023/12/12 13:59:57;;;;;;;0.47;0.27;;;13.40;99.90;16.00;99620.00;;;;5123171;27;20177;-67
2023/12/12 14:02:31;;;;;;;2.00;1.03;;;13.40;99.90;15.00;99611.00;;;;5099309;28;20248;-67
2023/12/12 14:05:11;;;;;;;2.83;1.80;;;13.10;99.90;14.90;99640.00;;;;5122597;27;20179;-68
2023/12/12 14:07:49;;;;;;;0.57;0.57;;;13.00;99.90;14.40;99618.00;;;;5103188;27;20183;-68
2023/12/12 14:10:26;;;;;;;1.33;1.23;;;12.60;99.90;14.40;99563.00;;;;5119938;27;20248;-68
2023/12/12 14:13:00;;;;;;;1.43;1.03;;;12.30;99.90;13.20;99580.00;;;;5109650;27;20204;-67
2023/12/12 14:15:49;;;;;;;0.20;0.20;;;12.00;99.90;13.80;99587.00;;;;5125116;27;20179;-70
2023/12/12 14:18:28;;;;;;;0.30;0.30;;;12.00;99.90;14.30;99562.00;;;;5116926;27;20218;-67
2023/12/12 14:21:03;;;;;;;0.20;0.20;;;12.10;99.90;15.40;99530.00;;;;5099178;27;20267;-67
2023/12/12 14:23:41;;;;;;;0.20;0.20;;;12.40;99.90;15.00;99575.00;;;;5109808;27;20235;-67
2023/12/12 14:26:13;;;;;;;0.20;0.20;;;12.30;99.90;15.50;99573.00;;;;5089394;28;20195;-67
2023/12/12 14:28:50;;;;;;;0.20;0.20;;;12.40;99.90;15.90;99589.00;;;;5103783;28;20713;-67
2023/12/12 14:31:25;;;;;;;0.20;0.20;;;12.70;99.90;16.10;99597.00;;;;5083727;28;20198;-67
2023/12/12 14:34:03;;;;;;;0.20;0.20;;;12.80;99.90;16.00;99588.00;;;;5121431;28;20544;-67
2023/12/12 14:36:45;;;;;;;0.20;0.20;;;12.80;99.90;15.60;99588.00;;;;5118854;28;20214;-67
2023/12/12 14:39:22;;;;;;;0.20;0.20;;;12.70;99.90;15.10;99578.00;;;;5094867;28;20195;-67
2023/12/12 14:42:03;;;;;;;0.33;0.33;;;12.50;99.90;15.70;99589.00;;;;5090320;28;20189;-69
2023/12/12 14:44:45;;;;;;;0.50;0.50;;;12.60;99.90;15.70;99575.00;;;;5104779;28;20179;-67
2023/12/12 14:47:19;;;;;;;0.20;0.20;;;12.60;99.90;15.70;99583.00;;;;5092401;28;20183;-67
2023/12/12 14:49:51;;;;;;;0.23;0.23;;;12.70;99.90;16.20;99588.00;;;;5118519;28;20187;-67
2023/12/12 14:52:28;;;;;;;0.30;0.30;;;13.00;99.90;15.60;99579.00;;;;5129843;28;20587;-67
2023/12/12 14:55:02;;;;;;;0.30;0.30;;;13.00;99.90;15.20;99578.00;;;;5124773;28;20282;-67
2023/12/12 14:57:39;;;;;;;0.30;0.30;;;12.70;99.90;15.30;99569.00;;;;5089674;28;20249;-68
2023/12/12 15:00:21;;;;;;;0.20;0.20;;;12.70;99.90;15.70;99574.00;;;;5106944;28;20187;-67
2023/12/12 15:02:56;;;;;;;0.30;0.30;;;12.60;99.90;15.60;99583.00;;;;5111679;28;20207;-68
2023/12/12 15:05:29;;;;;;;0.20;0.20;;;12.70;99.90;14.70;99575.00;;;;5103677;28;20192;-68
2023/12/12 15:08:07;;;;;;;0.30;0.30;;;12.40;99.90;15.00;99577.00;;;;5094472;28;20188;-68
2023/12/12 15:10:44;;;;;;;0.53;0.53;;;12.50;99.90;15.30;99565.00;;;;5120491;28;20618;-67
2023/12/12 15:13:23;;;;;;;0.20;0.20;;;12.50;99.90;15.50;99570.00;;;;5115073;28;20231;-67
2023/12/12 15:15:57;;;;;;;0.20;0.20;;;12.50;99.90;15.90;99571.00;;;;5104675;28;20199;-68
2023/12/12 15:18:34;;;;;;;0.30;0.30;;;12.70;99.90;15.10;99557.00;;;;5117737;27;20676;-67
2023/12/12 15:21:11;;;;;;;0.20;0.20;;;12.50;99.90;15.20;99561.00;;;;5116913;27;20184;-67
2023/12/12 15:23:42;;;;;;;0.20;0.20;;;12.40;99.90;15.40;99556.00;;;;5122949;27;20178;-68
2023/12/12 15:26:23;;;;;;;0.30;0.30;;;12.50;99.90;15.20;99536.00;;;;5131565;27;20187;-67
2023/12/12 15:29:03;;;;;;;0.57;0.33;;;12.40;99.90;15.30;99564.00;;;;5116401;27;20183;-67
2023/12/12 15:31:40;;;;;;;0.30;0.30;;;12.40;99.90;15.20;99541.00;;;;5115437;27;20689;-68
2023/12/12 15:34:07;;;;;;;0.20;0.20;;;12.40;99.90;15.20;99548.00;;;;5112137;27;20210;-67
2023/12/12 15:36:36;;;;;;;0.30;0.30;;;12.30;99.90;14.90;99544.00;;;;5115493;27;20191;-67
2023/12/12 15:39:08;;;;;;;0.80;0.80;;;12.20;99.90;14.80;99536.00;;;;5124008;27;20181;-67
2023/12/12 15:41:35;;;;;;;0.20;0.20;;;12.10;99.90;15.70;99538.00;;;;5119803;27;20207;-68
2023/12/12 15:44:07;;;;;;;0.30;0.30;;;12.30;99.90;15.50;99537.00;;;;5118914;27;20221;-68
2023/12/12 15:46:36;;;;;;;0.30;0.30;;;12.30;99.90;15.10;99540.00;;;;5133965;27;20191;-67
2023/12/12 15:49:08;;;;;;;0.20;0.20;;;12.40;99.90;15.20;99533.00;;;;5116126;27;20179;-67
2023/12/12 15:51:34;;;;;;;0.20;0.20;;;12.30;99.90;14.90;99528.00;;;;5121140;27;20207;-67
2023/12/12 15:54:10;;;;;;;0.30;0.30;;;12.20;99.90;15.50;99519.00;;;;5123536;27;20649;-67
2023/12/12 15:56:44;;;;;;;0.27;0.27;;;12.40;99.90;14.80;99506.00;;;;5103565;28;20192;-67
2023/12/12 15:59:13;;;;;;;0.30;0.30;;;12.20;99.90;14.30;99496.00;;;;5101817;27;20179;-67
2023/12/12 16:01:39;;;;;;;0.20;0.20;;;12.00;99.90;14.90;99494.00;;;;5129759;27;20198;-67
2023/12/12 16:04:14;;;;;;;0.30;0.30;;;12.00;99.90;14.70;99485.00;;;;5097560;28;20183;-67
2023/12/12 16:06:48;;;;;;;0.30;0.30;;;12.00;99.90;14.70;99492.00;;;;5104905;27;20627;-67
2023/12/12 16:09:20;;;;;;;0.20;0.20;;;11.90;99.90;14.40;99484.00;;;;5121038;27;20245;-68
2023/12/12 16:11:47;;;;;;;0.30;0.30;;;11.80;99.90;14.50;99492.00;;;;5122377;27;20214;-67
2023/12/12 16:14:33;;;;;;;0.33;0.33;;;11.80;99.90;14.10;99481.00;;;;5097128;28;20182;-67
2023/12/12 16:16:59;;;;;;;0.20;0.20;;;11.60;99.90;14.10;99479.00;;;;5103372;28;20718;-67
2023/12/12 16:19:31;;;;;;;0.80;0.80;;;11.50;99.90;14.10;99473.00;;;;5112168;27;20268;-67
2023/12/12 16:22:03;;;;;;;0.30;0.30;;;11.40;99.90;14.20;99469.00;;;;5133442;27;20193;-67
2023/12/12 16:24:32;;;;;;;1.23;1.13;;;11.40;99.90;13.60;99463.00;;;;5121720;27;20200;-68
2023/12/12 16:27:00;;;;;;;0.43;0.43;;;11.30;99.90;13.70;99465.00;;;;5119200;27;20190;-67
2023/12/12 16:29:36;;;;;;;1.40;0.97;;;11.30;99.90;13.80;99459.00;;;;5129103;27;20193;-67
2023/12/12 16:32:08;;;;;;;2.00;1.23;;;11.20;99.90;13.60;99454.00;;;;5089186;27;20573;-67
2023/12/12 16:34:35;;;;;;;0.57;0.57;;;11.20;99.90;13.50;99447.00;;;;5121973;27;20177;-67
2023/12/12 16:37:04;;;;;;;0.57;0.57;;;11.10;99.90;13.80;99451.00;;;;5084773;28;20195;-67
2023/12/12 16:39:33;;;;;;;0.67;0.67;;;11.10;99.90;13.40;99456.00;;;;5097052;28;20236;-68
2023/12/12 16:42:07;;;;;;;0.33;0.33;;;11.10;99.90;14.00;99444.00;;;;5113552;27;20298;-67
2023/12/12 16:44:33;;;;;;;0.20;0.20;;;11.10;99.90;14.10;99441.00;;;;5125115;27;20194;-67
2023/12/12 16:47:08;;;;;;;0.20;0.20;;;11.20;99.90;14.30;99442.00;;;;5121946;27;20212;-67
2023/12/12 16:49:48;;;;;;;0.60;0.60;;;11.20;99.90;13.70;99428.00;;;;5117931;27;20227;-67
2023/12/12 16:52:23;;;;;;;0.30;0.30;;;11.10;99.90;13.90;99432.00;;;;5119108;27;20235;-68
2023/12/12 16:54:57;;;;;;;0.57;0.50;;;11.10;99.90;13.80;99438.00;;;;5121122;27;20190;-67
2023/12/12 16:57:23;;;;;;;0.20;0.20;;;11.10;99.90;13.60;99435.00;;;;5106697;28;20195;-68
2023/12/12 17:00:00;;;;;;;0.30;0.30;;;11.00;99.90;13.30;99442.00;;;;5116593;27;20637;-68
2023/12/12 17:02:34;;;;;;;0.30;0.30;;;10.90;99.90;13.50;99435.00;;;;5092325;27;20640;-68
2023/12/12 17:05:08;;;;;;;0.20;0.20;;;11.00;99.90;13.60;99439.00;;;;5115944;27;20207;-67
2023/12/12 17:07:39;;;;;;;0.20;0.20;;;11.00;99.90;13.50;99438.00;;;;5101665;27;20180;-67
2023/12/12 17:10:09;;;;;;;0.20;0.20;;;11.00;99.90;14.10;99425.00;;;;5106698;27;20214;-67
2023/12/12 17:12:39;;;;;;;0.60;0.60;;;11.20;99.90;13.70;99415.00;;;;5121853;27;20254;-67
2023/12/12 17:15:10;;;;;;;0.50;0.50;;;11.20;99.90;13.50;99419.00;;;;5096365;28;20177;-67
2023/12/12 17:17:45;;;;;;;0.30;0.30;;;11.20;99.90;13.80;99425.00;;;;5110033;27;20541;-67
2023/12/12 17:20:16;;;;;;;0.20;0.20;;;11.20;99.90;13.50;99415.00;;;;5092886;27;20520;-67
2023/12/12 17:22:53;;;;;;;0.20;0.20;;;11.20;99.90;14.10;99412.00;;;;5124790;27;20234;-67
2023/12/12 17:25:28;;;;;;;0.77;0.77;;;11.30;99.90;13.90;99386.00;;;;5109706;27;20690;-67
2023/12/12 17:27:59;;;;;;;0.40;0.40;;;11.30;99.90;13.40;99392.00;;;;5104316;28;20178;-67
2023/12/12 17:30:25;;;;;;;0.40;0.40;;;11.20;99.90;13.40;99402.00;;;;5109162;28;20182;-68
2023/12/12 17:33:00;;;;;;;0.60;0.60;;;11.20;99.90;13.80;99377.00;;;;5085579;27;20718;-67
2023/12/12 17:35:35;;;;;;;0.63;0.63;;;11.30;99.90;13.70;99409.00;;;;5114973;27;20219;-67
2023/12/12 17:38:29;;;;;;;0.40;0.40;;;11.20;99.90;13.60;99402.00;;;;5128485;27;20194;-67
2023/12/12 17:41:24;;;;;;;0.30;0.30;;;11.20;99.90;13.80;99395.00;;;;5091992;28;20206;-67
2023/12/12 17:44:14;;;;;;;0.93;0.93;;;11.20;99.90;13.60;99390.00;;;;5109612;27;20226;-67
2023/12/12 17:46:42;;;;;;;0.50;0.50;;;11.20;99.90;13.60;99384.00;;;;5084114;28;20780;-67
2023/12/12 17:49:25;;;;;;;1.23;1.23;;;11.20;99.90;13.80;99386.00;;;;5095305;27;20775;-67
2023/12/12 17:51:55;;;;;;;1.27;1.27;;;11.30;99.90;13.70;99387.00;;;;5097357;28;20206;-67
2023/12/12 17:54:35;;;;;;;0.30;0.30;;;11.30;99.90;13.70;99389.00;;;;5116396;27;20192;-67
2023/12/12 17:57:09;;;;;;;0.53;0.53;;;11.30;99.90;13.50;99373.00;;;;5116478;27;20185;-67
2023/12/12 18:00:03;;;;;;;0.27;0.27;;;11.30;99.90;13.70;99382.00;;;;5095743;28;20281;-67
2023/12/12 18:02:43;;;;;;;2.57;0.53;;;11.30;99.90;13.80;99368.00;;;;5122628;27;20197;-67
2023/12/12 18:05:39;;;;;;;0.20;0.20;;;11.30;99.90;13.60;99369.00;;;;5118557;27;20612;-67
2023/12/12 18:08:40;;;;;;;0.30;0.30;;;11.30;99.90;13.90;99373.00;;;;5114760;27;20190;-67
2023/12/12 18:11:38;;;;;;;0.30;0.30;;;11.30;99.90;13.90;99344.00;;;;5100789;27;20265;-67
2023/12/12 18:14:12;;;;;;;0.20;0.20;;;11.30;99.90;13.40;99364.00;;;;5091685;28;20184;-67
2023/12/12 18:17:10;;;;;;;0.40;0.40;;;11.30;99.90;13.60;99356.00;;;;5112109;27;20277;-67
2023/12/12 18:20:20;;;;;;;0.30;0.30;;;11.30;99.90;14.30;99366.00;;;;5108428;27;20196;-67
2023/12/12 18:23:29;;;;;;;0.30;0.30;;;11.50;99.90;14.40;99366.00;;;;5063110;28;20289;-68
2023/12/12 18:26:06;;;;;;;0.20;0.20;;;11.60;99.90;14.10;99373.00;;;;5100743;27;20229;-68
2023/12/12 18:28:56;;;;;;;5.10;1.90;;;11.60;99.90;13.80;99368.00;;;;5087071;27;20190;-68
2023/12/12 18:31:36;;;;;;;0.20;0.20;;;11.60;99.90;13.90;99366.00;;;;5117140;28;20203;-68
2023/12/12 18:34:08;;;;;;;0.97;0.83;;;11.50;99.90;13.60;99367.00;;;;5124301;28;20212;-68
2023/12/12 18:36:48;;;;;;;0.27;0.27;;;11.50;99.90;13.90;99349.00;;;;5079991;28;20228;-68
2023/12/12 18:39:37;;;;;;;0.40;0.40;;;11.50;99.90;13.30;99366.00;;;;5094956;28;20198;-67
2023/12/12 18:42:23;;;;;;;1.57;1.47;;;11.40;99.90;13.40;99379.00;;;;5095838;28;20263;-67